createdAt,value
2018-07-02T00:02:21.913Z,16.05
2018-07-02T00:04:50.088Z,15.99
2018-07-02T00:07:27.722Z,15.97
2018-07-02T00:09:56.118Z,15.95
2018-07-02T00:12:25.037Z,15.92
2018-07-02T00:14:53.901Z,15.88
2018-07-02T00:17:22.015Z,15.85
2018-07-02T00:19:50.149Z,15.86
2018-07-02T00:22:18.244Z,15.91
2018-07-02T00:24:46.317Z,15.88
2018-07-02T00:27:14.420Z,15.86
2018-07-02T00:29:42.507Z,15.76
2018-07-02T00:32:10.947Z,15.72
2018-07-02T00:34:39.032Z,15.71
2018-07-02T00:37:07.156Z,15.63
2018-07-02T00:39:35.452Z,15.58
2018-07-02T00:42:03.626Z,15.66
2018-07-02T00:44:31.714Z,15.67
2018-07-02T00:46:59.807Z,15.66
2018-07-02T00:49:27.903Z,15.61
2018-07-02T00:51:55.993Z,15.56
2018-07-02T00:54:24.063Z,15.50
2018-07-02T00:56:52.164Z,15.49
2018-07-02T00:59:20.235Z,15.38
2018-07-02T01:01:48.771Z,15.26
2018-07-02T01:04:16.884Z,15.21
2018-07-02T01:06:45.117Z,15.11
2018-07-02T01:09:13.590Z,15.03
2018-07-02T01:11:41.676Z,15.03
2018-07-02T01:14:09.789Z,14.97
2018-07-02T01:16:37.868Z,14.93
2018-07-02T01:19:06.717Z,14.84
2018-07-02T01:21:34.800Z,14.76
2018-07-02T01:24:02.920Z,14.61
2018-07-02T01:26:31.011Z,14.51
2018-07-02T01:28:59.108Z,14.50
2018-07-02T01:31:27.456Z,14.48
2018-07-02T01:33:55.545Z,14.41
2018-07-02T01:36:23.645Z,14.35
2018-07-02T01:38:51.867Z,14.25
2018-07-02T01:41:19.996Z,14.14
2018-07-02T01:43:48.160Z,14.03
2018-07-02T01:46:16.241Z,13.96
2018-07-02T01:48:44.336Z,13.84
2018-07-02T01:51:12.531Z,13.68
2018-07-02T01:53:40.931Z,13.48
2018-07-02T01:56:09.107Z,13.23
2018-07-02T01:58:38.017Z,13.12
2018-07-02T02:01:06.178Z,12.88
2018-07-02T02:03:34.269Z,12.76
2018-07-02T02:06:02.360Z,12.66
2018-07-02T02:08:30.479Z,12.68
2018-07-02T02:10:58.587Z,12.65
2018-07-02T02:13:26.681Z,12.66
2018-07-02T02:15:54.797Z,12.74
2018-07-02T02:18:22.908Z,12.77
2018-07-02T02:20:51.037Z,12.81
2018-07-02T02:23:19.153Z,12.95
2018-07-02T02:25:47.236Z,13.08
2018-07-02T02:28:15.296Z,13.20
2018-07-02T02:30:43.401Z,13.35
2018-07-02T02:33:11.572Z,13.39
2018-07-02T02:35:39.657Z,13.32
2018-07-02T02:38:07.873Z,13.26
2018-07-02T02:40:36.092Z,13.14
2018-07-02T02:43:04.217Z,13.03
2018-07-02T02:45:32.767Z,13.05
2018-07-02T02:48:00.960Z,12.90
2018-07-02T02:50:29.048Z,12.99
2018-07-02T02:52:57.156Z,13.09
2018-07-02T02:55:25.268Z,13.09
2018-07-02T02:57:53.595Z,13.09
2018-07-02T03:00:21.685Z,13.16
2018-07-02T03:02:49.980Z,13.14
2018-07-02T03:05:18.193Z,13.17
2018-07-02T03:07:46.300Z,13.14
2018-07-02T03:10:14.655Z,13.16
2018-07-02T03:12:42.771Z,13.19
2018-07-02T03:15:10.864Z,13.15
2018-07-02T03:17:38.961Z,13.09
2018-07-02T03:20:07.529Z,13.00
2018-07-02T03:22:35.739Z,12.98
2018-07-02T03:25:03.869Z,12.95
2018-07-02T03:27:31.952Z,12.94
2018-07-02T03:30:00.033Z,12.98
2018-07-02T03:32:28.224Z,12.92
2018-07-02T03:34:56.340Z,12.86
2018-07-02T03:37:24.429Z,12.68
2018-07-02T03:39:52.534Z,12.58
2018-07-02T03:42:20.795Z,12.51
2018-07-02T03:44:48.924Z,12.53
2018-07-02T03:47:17.860Z,12.51
2018-07-02T03:49:45.966Z,12.52
2018-07-02T03:52:14.052Z,12.61
2018-07-02T03:54:42.197Z,12.62
2018-07-02T03:57:10.420Z,12.65
2018-07-02T03:59:38.980Z,12.71
2018-07-02T04:02:07.079Z,12.75
2018-07-02T04:04:35.183Z,12.72
2018-07-02T04:07:03.383Z,12.81
2018-07-02T04:09:31.479Z,12.81
2018-07-02T04:11:59.683Z,12.85
2018-07-02T04:14:27.917Z,12.92
2018-07-02T04:16:56.064Z,12.97
2018-07-02T04:19:24.173Z,13.04
2018-07-02T04:21:52.287Z,13.15
2018-07-02T04:24:20.376Z,13.70
2018-07-02T04:26:48.471Z,15.24
2018-07-02T04:29:16.556Z,17.04
2018-07-02T04:31:44.704Z,17.44
2018-07-02T04:34:13.807Z,18.16
2018-07-02T04:36:41.855Z,19.08
2018-07-02T04:39:09.956Z,19.16
2018-07-02T04:41:38.360Z,19.98
2018-07-02T04:44:06.896Z,20.84
2018-07-02T04:46:35.082Z,21.42
2018-07-02T04:49:03.221Z,21.01
2018-07-02T04:51:31.292Z,21.67
2018-07-02T04:53:59.363Z,20.90
2018-07-02T04:56:27.451Z,21.14
2018-07-02T04:58:55.644Z,21.78
2018-07-02T05:01:23.735Z,22.77
2018-07-02T05:03:51.968Z,23.19
2018-07-02T05:06:20.084Z,22.58
2018-07-02T05:08:48.164Z,22.59
2018-07-02T05:11:16.308Z,22.01
2018-07-02T05:13:45.312Z,20.60
2018-07-02T05:16:13.381Z,20.65
2018-07-02T05:18:41.743Z,20.41
2018-07-02T05:21:09.850Z,20.91
2018-07-02T05:23:37.941Z,21.83
2018-07-02T05:26:06.079Z,21.63
2018-07-02T05:28:34.424Z,21.00
2018-07-02T05:31:02.506Z,21.40
2018-07-02T05:33:30.589Z,21.74
2018-07-02T05:35:58.682Z,23.33
2018-07-02T05:38:26.786Z,23.02
2018-07-02T05:40:55.122Z,22.22
2018-07-02T05:43:23.265Z,21.30
2018-07-02T05:45:51.356Z,20.97
2018-07-02T05:48:19.544Z,22.02
2018-07-02T05:50:47.644Z,22.54
2018-07-02T05:53:15.864Z,23.29
2018-07-02T05:55:43.936Z,24.13
2018-07-02T05:58:12.016Z,24.70
2018-07-02T06:00:40.132Z,25.47
2018-07-02T06:03:08.206Z,26.27
2018-07-02T06:05:36.296Z,25.74
2018-07-02T06:08:04.641Z,25.67
2018-07-02T06:10:32.683Z,26.37
2018-07-02T06:13:01.029Z,26.65
2018-07-02T06:15:29.153Z,26.08
2018-07-02T06:17:57.240Z,25.64
2018-07-02T06:20:25.500Z,25.40
2018-07-02T06:22:53.665Z,25.00
2018-07-02T06:25:21.757Z,24.78
2018-07-02T06:27:50.157Z,25.99
2018-07-02T06:30:18.419Z,26.67
2018-07-02T06:32:46.737Z,27.06
2018-07-02T06:35:14.829Z,27.34
2018-07-02T06:37:42.925Z,25.21
2018-07-02T06:40:11.009Z,25.94
2018-07-02T06:42:39.443Z,27.01
2018-07-02T06:45:07.527Z,26.96
2018-07-02T06:47:35.643Z,26.42
2018-07-02T06:50:03.758Z,23.39
2018-07-02T06:52:31.852Z,22.35
2018-07-02T06:54:59.926Z,21.68
2018-07-02T06:57:28.036Z,20.96
2018-07-02T06:59:56.108Z,20.66
2018-07-02T07:02:24.195Z,19.89
2018-07-02T07:04:52.439Z,19.26
2018-07-02T07:07:20.542Z,19.32
2018-07-02T07:09:48.672Z,19.85
2018-07-02T07:12:16.749Z,19.88
2018-07-02T07:14:44.844Z,19.95
2018-07-02T07:17:13.025Z,19.97
2018-07-02T07:19:42.138Z,20.18
2018-07-02T07:22:10.276Z,20.36
2018-07-02T07:24:38.388Z,20.15
2018-07-02T07:27:06.478Z,20.23
2018-07-02T07:29:34.583Z,20.47
2018-07-02T07:32:02.668Z,20.86
2018-07-02T07:34:30.765Z,21.04
2018-07-02T07:36:58.852Z,21.15
2018-07-02T07:39:26.937Z,20.74
2018-07-02T07:44:47.448Z,21.19
2018-07-02T07:47:15.533Z,21.08
2018-07-02T07:49:43.612Z,21.20
2018-07-02T07:52:11.809Z,21.11
2018-07-02T07:54:39.888Z,21.08
2018-07-02T07:57:07.973Z,21.36
2018-07-02T07:59:36.053Z,21.34
2018-07-02T08:02:04.132Z,21.41
2018-07-02T08:04:32.221Z,21.58
2018-07-02T08:07:00.328Z,21.85
2018-07-02T08:09:28.432Z,21.93
2018-07-02T08:11:56.638Z,21.45
2018-07-02T08:14:24.772Z,21.64
2018-07-02T08:16:53.284Z,21.79
2018-07-02T08:19:21.389Z,21.87
2018-07-02T08:21:49.828Z,22.27
2018-07-02T08:24:17.944Z,22.31
2018-07-02T08:26:46.032Z,22.22
2018-07-02T08:29:14.094Z,22.13
2018-07-02T08:31:42.204Z,21.94
2018-07-02T08:34:10.493Z,21.78
2018-07-02T08:36:38.610Z,21.63
2018-07-02T08:39:09.305Z,21.71
2018-07-02T08:41:37.401Z,21.81
2018-07-02T08:44:05.858Z,21.91
2018-07-02T08:46:34.333Z,21.65
2018-07-02T08:49:02.549Z,21.85
2018-07-02T08:51:31.004Z,22.05
2018-07-02T08:53:59.185Z,22.07
2018-07-02T08:56:27.293Z,22.40
2018-07-02T08:58:55.428Z,22.19
2018-07-02T09:01:23.544Z,22.06
2018-07-02T09:03:52.177Z,22.46
2018-07-02T09:06:20.304Z,22.42
2018-07-02T09:08:48.374Z,22.76
2018-07-02T09:11:16.468Z,22.73
2018-07-02T09:13:44.547Z,22.60
2018-07-02T09:16:12.641Z,22.77
2018-07-02T09:18:40.715Z,22.86
2018-07-02T09:21:08.810Z,22.75
2018-07-02T09:23:36.888Z,22.77
2018-07-02T09:26:05.224Z,22.92
2018-07-02T09:28:33.290Z,23.14
2018-07-02T09:31:01.385Z,23.32
2018-07-02T09:33:29.465Z,23.26
2018-07-02T09:35:57.600Z,23.26
2018-07-02T09:38:25.692Z,23.57
2018-07-02T09:40:54.004Z,23.51
2018-07-02T09:43:21.872Z,23.47
2018-07-02T09:45:49.960Z,23.54
2018-07-02T09:48:18.511Z,23.62
2018-07-02T09:50:47.069Z,23.73
2018-07-02T09:53:15.160Z,23.96
2018-07-02T09:55:43.245Z,24.02
2018-07-02T09:58:11.333Z,23.76
2018-07-02T10:00:39.474Z,23.71
2018-07-02T10:03:08.996Z,23.72
2018-07-02T10:05:37.082Z,23.71
2018-07-02T10:08:05.204Z,24.21
2018-07-02T10:10:33.286Z,24.28
2018-07-02T10:13:01.444Z,24.48
2018-07-02T10:15:29.540Z,24.69
2018-07-02T10:17:58.258Z,24.42
2018-07-02T10:20:26.513Z,24.42
2018-07-02T10:22:54.727Z,23.85
2018-07-02T10:25:22.796Z,23.75
2018-07-02T10:27:50.965Z,23.88
2018-07-02T10:30:19.084Z,24.00
2018-07-02T10:32:47.212Z,24.34
2018-07-02T10:35:15.363Z,24.14
2018-07-02T10:37:43.531Z,23.91
2018-07-02T10:40:11.670Z,24.15
2018-07-02T10:42:39.774Z,24.26
2018-07-02T10:45:08.188Z,24.43
2018-07-02T10:47:36.244Z,24.36
2018-07-02T10:50:04.326Z,24.48
2018-07-02T10:52:32.506Z,24.31
2018-07-02T10:55:00.611Z,24.59
2018-07-02T10:57:28.733Z,24.66
2018-07-02T10:59:57.119Z,24.50
2018-07-02T11:02:25.261Z,24.54
2018-07-02T11:04:53.468Z,24.89
2018-07-02T11:07:21.560Z,25.15
2018-07-02T11:09:50.058Z,25.09
2018-07-02T11:12:19.248Z,25.19
2018-07-02T11:14:47.467Z,25.13
2018-07-02T11:17:15.582Z,25.16
2018-07-02T11:19:43.774Z,25.35
2018-07-02T11:22:11.867Z,25.15
2018-07-02T11:24:40.108Z,25.17
2018-07-02T11:27:08.317Z,25.44
2018-07-02T11:29:36.421Z,25.07
2018-07-02T11:32:04.510Z,24.85
2018-07-02T11:34:32.603Z,25.07
2018-07-02T11:37:01.199Z,25.11
2018-07-02T11:39:29.299Z,25.37
2018-07-02T11:41:57.380Z,25.55
2018-07-02T11:44:25.530Z,25.57
2018-07-02T11:46:53.704Z,25.84
2018-07-02T11:49:21.794Z,26.05
2018-07-02T11:51:50.021Z,25.91
2018-07-02T11:54:18.169Z,25.59
2018-07-02T11:56:46.275Z,25.73
2018-07-02T11:59:14.356Z,25.83
2018-07-02T12:01:42.564Z,26.07
2018-07-02T12:04:11.021Z,25.80
2018-07-02T12:06:39.092Z,25.64
2018-07-02T12:09:08.565Z,25.71
2018-07-02T12:11:36.632Z,25.76
2018-07-02T12:14:04.732Z,25.52
2018-07-02T12:16:32.826Z,25.57
2018-07-02T12:19:00.935Z,25.59
2018-07-02T12:21:29.052Z,26.13
2018-07-02T12:23:57.144Z,26.08
2018-07-02T12:26:25.457Z,25.83
2018-07-02T12:28:53.792Z,25.80
2018-07-02T12:31:21.892Z,26.08
2018-07-02T12:33:49.992Z,26.02
2018-07-02T12:36:18.115Z,26.10
2018-07-02T12:38:46.203Z,25.90
2018-07-02T12:41:14.306Z,26.37
2018-07-02T12:43:42.389Z,26.58
2018-07-02T12:46:10.524Z,26.84
2018-07-02T12:48:38.580Z,26.65
2018-07-02T12:51:06.681Z,26.39
2018-07-02T12:53:34.768Z,26.21
2018-07-02T12:56:03.421Z,26.46
2018-07-02T12:58:31.596Z,25.94
2018-07-02T13:00:59.689Z,26.31
2018-07-02T13:03:28.171Z,26.91
2018-07-02T13:05:56.313Z,27.12
2018-07-02T13:08:24.405Z,27.17
2018-07-02T13:10:52.517Z,26.77
2018-07-02T13:13:20.644Z,26.57
2018-07-02T13:15:48.744Z,26.99
2018-07-02T13:18:16.823Z,26.73
2018-07-02T13:20:45.149Z,26.92
2018-07-02T13:23:13.180Z,27.40
2018-07-02T13:25:41.272Z,27.07
2018-07-02T13:28:09.360Z,27.60
2018-07-02T13:30:37.458Z,27.38
2018-07-02T13:33:05.588Z,27.79
2018-07-02T13:35:34.602Z,27.94
2018-07-02T13:38:02.700Z,27.77
2018-07-02T13:40:30.784Z,27.99
2018-07-02T13:43:05.778Z,27.92
2018-07-02T13:45:34.878Z,27.46
2018-07-02T13:48:03.036Z,27.17
2018-07-02T13:50:31.115Z,27.11
2018-07-02T13:52:59.301Z,27.29
2018-07-02T13:55:27.425Z,27.81
2018-07-02T13:57:56.572Z,27.66
2018-07-02T14:00:24.852Z,27.61
2018-07-02T14:02:53.389Z,27.84
2018-07-02T14:05:21.503Z,27.81
2018-07-02T14:07:49.682Z,27.65
2018-07-02T14:10:18.067Z,27.72
2018-07-02T14:12:46.149Z,27.06
2018-07-02T14:15:14.241Z,27.40
2018-07-02T14:17:42.337Z,27.53
2018-07-02T14:20:10.530Z,27.52
2018-07-02T14:22:38.652Z,27.80
2018-07-02T14:25:06.781Z,27.99
2018-07-02T14:27:34.876Z,28.27
2018-07-02T14:30:03.016Z,28.67
2018-07-02T14:32:31.105Z,28.40
2018-07-02T14:34:59.197Z,28.07
2018-07-02T14:37:27.371Z,28.14
2018-07-02T14:39:55.476Z,28.25
2018-07-02T14:42:23.571Z,27.71
2018-07-02T14:44:51.783Z,27.79
2018-07-02T14:47:20.183Z,27.96
2018-07-02T14:49:48.537Z,27.89
2018-07-02T14:52:16.624Z,27.76
2018-07-02T14:54:44.849Z,27.59
2018-07-02T14:57:13.077Z,27.72
2018-07-02T14:59:41.173Z,27.84
2018-07-02T15:02:09.290Z,28.12
2018-07-02T15:04:37.497Z,28.35
2018-07-02T15:07:05.829Z,28.40
2018-07-02T15:09:33.932Z,28.35
2018-07-02T15:12:02.005Z,27.96
2018-07-02T15:14:30.472Z,27.69
2018-07-02T15:16:58.586Z,28.04
2018-07-02T15:19:26.712Z,28.16
2018-07-02T15:21:55.161Z,28.22
2018-07-02T15:24:23.610Z,28.25
2018-07-02T15:26:51.989Z,28.23
2018-07-02T15:29:20.109Z,28.36
2018-07-02T15:31:48.229Z,28.11
2018-07-02T15:34:16.336Z,28.29
2018-07-02T15:36:44.420Z,28.40
2018-07-02T15:39:12.540Z,28.50
2018-07-02T15:41:40.746Z,28.52
2018-07-02T15:44:08.806Z,28.70
2018-07-02T15:46:36.949Z,28.84
2018-07-02T15:49:05.088Z,28.65
2018-07-02T15:51:33.172Z,28.92
2018-07-02T15:54:01.945Z,28.80
2018-07-02T15:56:29.803Z,28.79
2018-07-02T15:58:57.901Z,28.43
2018-07-02T16:01:25.981Z,28.39
2018-07-02T16:03:54.084Z,28.17
2018-07-02T16:06:22.195Z,28.35
2018-07-02T16:08:50.298Z,28.39
2018-07-02T16:11:18.580Z,28.29
2018-07-02T16:13:46.768Z,28.45
2018-07-02T16:16:14.985Z,28.39
2018-07-02T16:18:43.099Z,28.03
2018-07-02T16:21:11.304Z,28.12
2018-07-02T16:23:40.201Z,28.35
2018-07-02T16:26:08.313Z,28.56
2018-07-02T16:28:36.772Z,28.10
2018-07-02T16:31:05.121Z,28.16
2018-07-02T16:33:33.259Z,28.29
2018-07-02T16:36:01.352Z,28.07
2018-07-02T16:38:29.432Z,28.12
2018-07-02T16:40:57.540Z,27.90
2018-07-02T16:43:25.672Z,28.18
2018-07-02T16:45:53.771Z,27.84
2018-07-02T16:48:21.949Z,27.60
2018-07-02T16:50:50.084Z,28.09
2018-07-02T16:53:18.230Z,27.90
2018-07-02T16:55:46.373Z,28.38
2018-07-02T16:58:14.464Z,28.68
2018-07-02T17:00:42.549Z,28.03
2018-07-02T17:03:11.670Z,28.00
2018-07-02T17:05:39.769Z,27.91
2018-07-02T17:08:07.844Z,27.73
2018-07-02T17:10:35.945Z,27.88
2018-07-02T17:13:04.076Z,28.31
2018-07-02T17:15:32.193Z,28.13
2018-07-02T17:18:00.265Z,28.17
2018-07-02T17:20:28.556Z,28.07
2018-07-02T17:22:56.636Z,27.82
2018-07-02T17:25:24.730Z,27.78
2018-07-02T17:27:52.842Z,27.96
2018-07-02T17:30:20.956Z,28.03
2018-07-02T17:32:49.106Z,27.90
2018-07-02T17:35:17.209Z,27.69
2018-07-02T17:37:45.305Z,27.53
2018-07-02T17:40:13.400Z,27.50
2018-07-02T17:42:41.836Z,27.31
2018-07-02T17:45:09.960Z,27.10
2018-07-02T17:47:38.055Z,27.16
2018-07-02T17:50:06.279Z,27.03
2018-07-02T17:52:34.415Z,26.94
2018-07-02T17:55:02.510Z,26.87
2018-07-02T17:57:30.611Z,26.54
2018-07-02T17:59:58.686Z,26.48
2018-07-02T18:02:28.618Z,26.36
2018-07-02T18:04:56.736Z,26.21
2018-07-02T18:07:24.821Z,26.23
2018-07-02T18:09:52.958Z,26.14
2018-07-02T18:12:21.008Z,26.12
2018-07-02T18:14:49.243Z,25.86
2018-07-02T18:17:17.454Z,25.78
2018-07-02T18:19:45.545Z,25.68
2018-07-02T18:22:14.989Z,25.61
2018-07-02T18:24:43.347Z,25.54
2018-07-02T18:27:11.446Z,25.47
2018-07-02T18:29:39.538Z,25.38
2018-07-02T18:32:08.301Z,25.34
2018-07-02T18:34:36.358Z,25.25
2018-07-02T18:37:04.459Z,25.13
2018-07-02T18:39:32.548Z,25.12
2018-07-02T18:42:00.776Z,25.03
2018-07-02T18:44:28.865Z,24.93
2018-07-02T18:46:56.982Z,24.86
2018-07-02T18:49:25.089Z,24.75
2018-07-02T18:51:53.878Z,24.66
2018-07-02T18:54:21.997Z,24.59
2018-07-02T18:56:50.178Z,24.50
2018-07-02T18:59:18.278Z,24.43
2018-07-02T19:01:46.357Z,24.35
2018-07-02T19:04:14.517Z,24.26
2018-07-02T19:06:42.661Z,24.23
2018-07-02T19:09:11.690Z,24.13
2018-07-02T19:11:40.057Z,23.96
2018-07-02T19:14:08.165Z,23.84
2018-07-02T19:16:36.392Z,23.85
2018-07-02T19:19:04.484Z,23.77
2018-07-02T19:21:32.645Z,23.65
2018-07-02T19:24:00.810Z,23.59
2018-07-02T19:26:28.951Z,23.44
2018-07-02T19:28:58.045Z,23.28
2018-07-02T19:31:26.143Z,23.18
2018-07-02T19:33:54.236Z,22.99
2018-07-02T19:36:22.432Z,22.92
2018-07-02T19:38:50.538Z,22.80
2018-07-02T19:43:45.764Z,22.70
2018-07-02T19:46:13.853Z,22.59
2018-07-02T19:48:41.956Z,22.54
2018-07-02T19:51:10.048Z,22.50
2018-07-02T19:53:38.164Z,22.36
2018-07-02T19:56:06.403Z,22.28
2018-07-02T19:58:34.560Z,22.20
2018-07-02T20:01:02.669Z,22.17
2018-07-02T20:03:30.760Z,22.06
2018-07-02T20:05:58.869Z,22.01
2018-07-02T20:08:26.993Z,22.00
2018-07-02T20:10:55.104Z,21.94
2018-07-02T20:13:23.827Z,21.86
2018-07-02T20:15:51.922Z,21.78
2018-07-02T20:18:20.027Z,21.73
2018-07-02T20:20:48.132Z,21.71
2018-07-02T20:23:16.944Z,21.71
2018-07-02T20:25:45.459Z,21.67
2018-07-02T20:28:13.592Z,21.57
2018-07-02T20:30:41.687Z,21.55
2018-07-02T20:33:09.812Z,21.54
2018-07-02T20:35:37.947Z,21.45
2018-07-02T20:38:06.083Z,21.38
2018-07-02T20:40:34.173Z,21.33
2018-07-02T20:43:02.343Z,21.37
2018-07-02T20:45:30.542Z,21.35
2018-07-02T20:47:58.612Z,21.34
2018-07-02T20:50:26.773Z,21.25
2018-07-02T20:52:54.984Z,21.24
2018-07-02T20:55:23.420Z,21.18
2018-07-02T20:57:51.512Z,21.18
2018-07-02T21:00:19.604Z,21.08
2018-07-02T21:02:47.700Z,20.99
2018-07-02T21:05:16.005Z,20.92
2018-07-02T21:07:44.088Z,20.84
2018-07-02T21:10:12.240Z,20.69
2018-07-02T21:12:40.280Z,20.60
2018-07-02T21:15:08.389Z,20.45
2018-07-02T21:17:36.516Z,20.26
2018-07-02T21:20:05.041Z,20.22
2018-07-02T21:22:33.120Z,20.18
2018-07-02T21:25:01.627Z,20.08
2018-07-02T21:27:29.706Z,20.05
2018-07-02T21:29:58.635Z,20.04
2018-07-02T21:32:27.211Z,19.96
2018-07-02T21:34:55.341Z,19.91
2018-07-02T21:37:23.501Z,19.94
2018-07-02T21:39:51.592Z,19.91
2018-07-02T21:42:19.797Z,19.86
2018-07-02T21:44:47.928Z,19.83
2018-07-02T21:47:15.999Z,19.85
2018-07-02T21:49:44.084Z,19.81
2018-07-02T21:52:12.177Z,19.81
2018-07-02T21:54:40.272Z,19.83
2018-07-02T21:57:08.356Z,19.82
2018-07-02T22:02:38.812Z,19.72
2018-07-02T22:05:06.980Z,19.71
2018-07-02T22:07:35.117Z,19.68
2018-07-02T22:10:03.209Z,19.67
2018-07-02T22:12:31.331Z,19.66
2018-07-02T22:14:59.411Z,19.65
2018-07-02T22:17:27.510Z,19.63
2018-07-02T22:19:55.892Z,19.59
2018-07-02T22:22:23.995Z,19.61
2018-07-02T22:24:52.121Z,19.56
2018-07-02T22:27:20.242Z,19.52
2018-07-02T22:29:48.352Z,19.52
2018-07-02T22:32:16.606Z,19.48
2018-07-02T22:34:44.723Z,19.50
2018-07-02T22:37:12.908Z,19.50
2018-07-02T22:39:41.049Z,19.53
2018-07-02T22:42:09.215Z,19.51
2018-07-02T22:44:37.330Z,19.66
2018-07-02T22:47:05.503Z,19.60
2018-07-02T22:49:34.435Z,19.73
2018-07-02T22:52:02.515Z,19.80
2018-07-02T22:54:30.607Z,19.76
2018-07-02T22:56:58.700Z,19.74
2018-07-02T22:59:27.180Z,19.63
2018-07-02T23:01:55.323Z,19.51
2018-07-02T23:04:23.410Z,19.38
2018-07-02T23:06:51.510Z,19.27
2018-07-02T23:09:19.741Z,19.19
2018-07-02T23:11:47.822Z,19.05
2018-07-02T23:14:15.887Z,18.97
2018-07-02T23:16:44.304Z,18.94
2018-07-02T23:19:12.474Z,18.89
2018-07-02T23:21:40.752Z,18.64
2018-07-02T23:24:09.122Z,18.51
2018-07-02T23:26:37.538Z,18.48
2018-07-02T23:29:05.669Z,18.49
2018-07-02T23:31:33.750Z,18.37
2018-07-02T23:34:01.832Z,18.06
2018-07-02T23:36:29.914Z,18.08
2018-07-02T23:38:59.015Z,18.11
2018-07-02T23:41:27.195Z,18.16
2018-07-02T23:43:58.288Z,18.15
2018-07-02T23:46:26.372Z,18.02
2018-07-02T23:48:54.460Z,17.96
2018-07-02T23:51:22.552Z,17.96
2018-07-02T23:53:50.760Z,17.84
2018-07-02T23:56:18.947Z,17.73
2018-07-02T23:58:47.045Z,17.84
